Funcho — EAUS — position and weather

sailwx.info

Track history (hours):
 
Tides and Currents Weather Stations Pressure Air Temp Water Temp Dewpoint Dewpoint Depression Visibility Wind Speed Wind Dir Waves Ship Positions

Funcho

Last reported at 2017-Dec-31 07:17 UTC. Time now 2018-May-21 01:10 UTC.
Position N 25°49' W 015°08'.
Warning: this ship's position is months out of date.

Length 42 m; draft 5 m.

Type: Fishing. MMSI: 224266000.

Date/timePositionNaut miles runAvg speedWind from/ knotsBaromVisibWave heightAir tempDewpointWater temp
2017-Dec-31 07:17N 25°49' W 015°08'411.0
2017-Dec-31 06:57N 25°52' W 015°06'510.8
2017-Dec-31 06:30N 25°56' W 015°03'610.7
2017-Dec-31 05:58N 26°01' W 014°60'511.1
2017-Dec-31 05:30N 26°05' W 014°57'611.3
2017-Dec-31 05:00N 26°10' W 014°53'1211.6
2017-Dec-31 03:56N 26°20' W 014°45'511.3
2017-Dec-31 03:30N 26°24' W 014°42'2111.0
2017-Dec-31 01:37N 26°40' W 014°27'810.9
2017-Dec-31 00:52N 26°46' W 014°21'410.6
2017-Dec-31 00:27N 26°50' W 014°18'510.8
2017-Dec-31 00:00N 26°54' W 014°15'510.8
2017-Dec-30 23:30N 26°58' W 014°11'510.5
2017-Dec-30 23:01N 27°02' W 014°08'510.3
2017-Dec-30 22:30N 27°06' W 014°04'510.5
2017-Dec-30 22:00N 27°10' W 014°01'510.3
2017-Dec-30 21:30N 27°14' W 013°57'510.2
2017-Dec-30 21:00N 27°18' W 013°54'510.3
2017-Dec-30 20:30N 27°23' W 013°50'510.9
2017-Dec-30 20:00N 27°27' W 013°46'611.3
2017-Dec-30 19:31N 27°31' W 013°42'611.1
2017-Dec-30 19:01N 27°35' W 013°38'611.0
2017-Dec-30 18:30N 27°39' W 013°33'511.1
2017-Dec-30 18:01N 27°42' W 013°29'611.1
2017-Dec-30 17:30N 27°47' W 013°24'511.1
2017-Dec-30 17:00N 27°51' W 013°20'511.0
2017-Dec-30 16:30N 27°55' W 013°16'510.9
2017-Dec-30 16:00N 27°58' W 013°12'711.0
2017-Dec-30 15:23N 28°03' W 013°06'410.9
2017-Dec-30 14:59N 28°06' W 013°03'510.7
2017-Dec-30 14:30N 28°10' W 012°58'610.9
2017-Dec-30 13:58N 28°14' W 012°53'510.8
2017-Dec-30 13:30N 28°17' W 012°49'510.6
2017-Dec-30 13:00N 28°21' W 012°45'510.5
2017-Dec-30 12:31N 28°24' W 012°40'510.8
2017-Dec-30 12:00N 28°27' W 012°35'510.9
2017-Dec-30 11:31N 28°31' W 012°31'610.7
2017-Dec-30 10:56N 28°35' W 012°25'1410.4
2017-Dec-30 09:36N 28°44' W 012°14'110.6
2017-Dec-30 09:31N 28°45' W 012°13'510.5
2017-Dec-30 08:59N 28°48' W 012°08'610.5
2017-Dec-30 08:26N 28°52' W 012°03'  
Track history (hours):
 
Tides and Currents Weather Stations Pressure Air Temp Water Temp Dewpoint Dewpoint Depression Visibility Wind Speed Wind Dir Waves Ship Positions

Funcho

Last reported at 2017-Dec-31 07:17 UTC. Time now 2018-May-21 01:10 UTC.
Position N 25°49' W 015°08'.
Warning: this ship's position is months out of date.

Length 42 m; draft 5 m.

Type: Fishing. MMSI: 224266000.

Date/timePositionNaut miles runAvg speedWind from/ knotsBaromVisibWave heightAir tempDewpointWater temp
2017-Dec-31 07:17N 25°49' W 015°08'411.0
2017-Dec-31 06:57N 25°52' W 015°06'510.8
2017-Dec-31 06:30N 25°56' W 015°03'610.7
2017-Dec-31 05:58N 26°01' W 014°60'511.1
2017-Dec-31 05:30N 26°05' W 014°57'611.3
2017-Dec-31 05:00N 26°10' W 014°53'1211.6
2017-Dec-31 03:56N 26°20' W 014°45'511.3
2017-Dec-31 03:30N 26°24' W 014°42'2111.0
2017-Dec-31 01:37N 26°40' W 014°27'810.9
2017-Dec-31 00:52N 26°46' W 014°21'410.6
2017-Dec-31 00:27N 26°50' W 014°18'510.8
2017-Dec-31 00:00N 26°54' W 014°15'510.8
2017-Dec-30 23:30N 26°58' W 014°11'510.5
2017-Dec-30 23:01N 27°02' W 014°08'510.3
2017-Dec-30 22:30N 27°06' W 014°04'510.5
2017-Dec-30 22:00N 27°10' W 014°01'510.3
2017-Dec-30 21:30N 27°14' W 013°57'510.2
2017-Dec-30 21:00N 27°18' W 013°54'510.3
2017-Dec-30 20:30N 27°23' W 013°50'510.9
2017-Dec-30 20:00N 27°27' W 013°46'611.3
2017-Dec-30 19:31N 27°31' W 013°42'611.1
2017-Dec-30 19:01N 27°35' W 013°38'611.0
2017-Dec-30 18:30N 27°39' W 013°33'511.1
2017-Dec-30 18:01N 27°42' W 013°29'611.1
2017-Dec-30 17:30N 27°47' W 013°24'511.1
2017-Dec-30 17:00N 27°51' W 013°20'511.0
2017-Dec-30 16:30N 27°55' W 013°16'510.9
2017-Dec-30 16:00N 27°58' W 013°12'711.0
2017-Dec-30 15:23N 28°03' W 013°06'410.9
2017-Dec-30 14:59N 28°06' W 013°03'510.7
2017-Dec-30 14:30N 28°10' W 012°58'610.9
2017-Dec-30 13:58N 28°14' W 012°53'510.8
2017-Dec-30 13:30N 28°17' W 012°49'510.6
2017-Dec-30 13:00N 28°21' W 012°45'510.5
2017-Dec-30 12:31N 28°24' W 012°40'510.8
2017-Dec-30 12:00N 28°27' W 012°35'510.9
2017-Dec-30 11:31N 28°31' W 012°31'610.7
2017-Dec-30 10:56N 28°35' W 012°25'1410.4
2017-Dec-30 09:36N 28°44' W 012°14'110.6
2017-Dec-30 09:31N 28°45' W 012°13'510.5
2017-Dec-30 08:59N 28°48' W 012°08'610.5
2017-Dec-30 08:26N 28°52' W 012°03'  

Dump ship's entire track history